Time;durP1;ratioP1;P1;durP2;ratioP2;P2;SDS_P1;SDS_P2;PMS_P1;PMS_P2;Temp;Humidity;BMP_temperature;BMP_pressure;BME280_temperature;BME280_humidity;BME280_pressure;Samples;Min_cycle;Max_cycle;Signal;HPM_P1;HPM_P2
2019/09/30 00:01:34;;;;;;;7.8;3.6;;;;;;;16.09;79.26074;930.2592;;;;
2019/09/30 00:03:51;;;;;;;5.7;3.5;;;;;;;16.04;79.58691;930.1833;;;;
2019/09/30 00:06:35;;;;;;;6.2;3.5;;;;;;;16.02;79.51563;930.1443;;;;
2019/09/30 00:09:06;;;;;;;8.2;3.5;;;;;;;15.9;79.1123;930.2489;;;;
2019/09/30 00:11:39;;;;;;;6.4;3.6;;;;;;;15.9;79.57324;930.2835;;;;
2019/09/30 00:13:59;;;;;;;6.3;3.5;;;;;;;15.88;79.7666;930.3218;;;;
2019/09/30 00:16:23;;;;;;;5.9;3.2;;;;;;;15.8;80.20215;930.382;;;;
2019/09/30 00:18:55;;;;;;;5.4;3.4;;;;;;;15.74;80.43359;930.2645;;;;
2019/09/30 00:21:19;;;;;;;7.1;3.5;;;;;;;15.77;80.46191;930.288;;;;
2019/09/30 00:23:49;;;;;;;5;3.2;;;;;;;15.75;80.57422;930.3382;;;;
2019/09/30 00:26:14;;;;;;;6.4;3.4;;;;;;;15.8;80.26074;930.4012;;;;
2019/09/30 00:28:58;;;;;;;5.3;3.8;;;;;;;15.8;80.30859;930.4628;;;;
2019/09/30 00:31:12;;;;;;;6.7;3.9;;;;;;;15.51;81.68555;930.4264;;;;
2019/09/30 00:33:38;;;;;;;5.6;3.6;;;;;;;15.51;81.74316;930.4825;;;;
2019/09/30 00:36:06;;;;;;;6.7;3.8;;;;;;;15.55;81.33594;930.6726;;;;
2019/09/30 00:38:40;;;;;;;5.2;3.7;;;;;;;15.36;82.26855;930.516;;;;
2019/09/30 00:41:12;;;;;;;9.5;4;;;;;;;15.29;82.68359;930.4301;;;;
2019/09/30 00:43:45;;;;;;;6.4;3.7;;;;;;;15.43;81.9707;930.6199;;;;
2019/09/30 00:46:09;;;;;;;6.7;3.4;;;;;;;15.5;81.82227;930.5101;;;;
2019/09/30 00:48:39;;;;;;;7.1;3.8;;;;;;;15.62;81.19922;930.5313;;;;
2019/09/30 00:51:11;;;;;;;5.5;3.4;;;;;;;15.68;80.89746;930.5566;;;;
2019/09/30 00:53:45;;;;;;;7.1;3.8;;;;;;;15.69;80.65625;930.6245;;;;
2019/09/30 00:56:09;;;;;;;6.1;3.6;;;;;;;15.64;80.87891;930.5492;;;;
2019/09/30 00:58:40;;;;;;;6.1;3.3;;;;;;;15.51;81.30469;930.5709;;;;
2019/09/30 01:01:14;;;;;;;6.9;3.8;;;;;;;15.49;81.2793;930.4869;;;;
2019/09/30 01:03:46;;;;;;;5.1;3.4;;;;;;;15.35;81.9209;930.5781;;;;
2019/09/30 01:06:10;;;;;;;7.5;3.9;;;;;;;15.29;82.16406;930.6362;;;;
2019/09/30 01:08:41;;;;;;;6.8;3.4;;;;;;;15.17;82.73145;930.5446;;;;
2019/09/30 01:11:06;;;;;;;7.7;3.6;;;;;;;15.26;82.26172;930.4331;;;;
2019/09/30 01:13:35;;;;;;;5.9;3.5;;;;;;;15.28;82.26465;930.4792;;;;
2019/09/30 01:16:06;;;;;;;6.1;3.6;;;;;;;15.29;82.45313;930.4036;;;;
2019/09/30 01:18:30;;;;;;;6.4;3.2;;;;;;;15.27;82.11523;930.412;;;;
2019/09/30 01:20:54;;;;;;;6.1;3.3;;;;;;;15.01;83.30957;930.3969;;;;
2019/09/30 01:23:26;;;;;;;5.6;3.7;;;;;;;15.05;83.53809;930.2559;;;;
2019/09/30 01:25:52;;;;;;;6.1;3.5;;;;;;;15.2;82.82813;930.3571;;;;
2019/09/30 01:28:23;;;;;;;4.8;3.7;;;;;;;15.29;82.62598;930.2866;;;;
2019/09/30 01:30:58;;;;;;;5.9;3.9;;;;;;;15.28;82.05859;930.3484;;;;
2019/09/30 01:33:21;;;;;;;5.6;3.7;;;;;;;14.94;83.72461;930.4183;;;;
2019/09/30 01:35:50;;;;;;;6.9;3.9;;;;;;;15.03;83.17676;930.084;;;;
2019/09/30 01:38:20;;;;;;;6.5;3.8;;;;;;;14.86;84.04395;930.2668;;;;
2019/09/30 01:40:50;;;;;;;5.5;3.4;;;;;;;14.92;83.70801;930.1404;;;;
2019/09/30 01:43:19;;;;;;;7.5;3.7;;;;;;;14.89;83.30078;930.327;;;;
2019/09/30 01:45:44;;;;;;;5.1;3.5;;;;;;;15.07;83.11426;930.2451;;;;
2019/09/30 01:48:15;;;;;;;6.6;3.5;;;;;;;15.11;82.47656;930.2347;;;;
2019/09/30 01:50:41;;;;;;;7.7;3.8;;;;;;;14.97;83.56836;930.2149;;;;
2019/09/30 01:53:07;;;;;;;8.3;3.6;;;;;;;15.11;82.68457;930.2698;;;;
2019/09/30 01:55:35;;;;;;;9.7;3.7;;;;;;;15.19;82.58398;930.2089;;;;
2019/09/30 01:58:00;;;;;;;7;3.5;;;;;;;15.36;81.64746;930.1998;;;;
2019/09/30 02:00:52;;;;;;;5.6;3.4;;;;;;;15.25;81.69434;930.204;;;;
2019/09/30 02:02:51;;;;;;;5.8;3.4;;;;;;;15.27;81.52441;930.198;;;;
2019/09/30 02:05:17;;;;;;;7.3;3.6;;;;;;;15.16;82.43945;930.3805;;;;
2019/09/30 02:07:47;;;;;;;10.2;3.5;;;;;;;15.25;81.91406;930.0193;;;;
2019/09/30 02:10:14;;;;;;;5.3;3.4;;;;;;;15.15;81.88477;930.2514;;;;
2019/09/30 02:12:53;;;;;;;5.1;3.6;;;;;;;15.16;81.91992;930.2144;;;;
2019/09/30 02:15:15;;;;;;;6.5;3.1;;;;;;;15.24;81.23242;930.3269;;;;
2019/09/30 02:17:37;;;;;;;5.7;3.7;;;;;;;15.06;82.54688;930.3199;;;;
2019/09/30 02:20:04;;;;;;;6.8;3.3;;;;;;;15.29;81.91016;930.4012;;;;
2019/09/30 02:23:34;;;;;;;5;3.5;;;;;;;15.27;81.44531;930.1755;;;;
2019/09/30 02:26:07;;;;;;;6.2;3.3;;;;;;;15.23;81.45996;930.3664;;;;
2019/09/30 02:28:41;;;;;;;5.5;3.7;;;;;;;14.76;83.54004;930.2114;;;;
2019/09/30 02:31:13;;;;;;;6.8;3.3;;;;;;;14.99;82.14355;930.4108;;;;
2019/09/30 02:33:38;;;;;;;4.4;3.2;;;;;;;15.18;81.47461;930.2981;;;;
2019/09/30 02:36:09;;;;;;;5.2;3.3;;;;;;;15.15;81.01758;930.2098;;;;
2019/09/30 02:38:35;;;;;;;5.8;3.3;;;;;;;15.17;81.18262;930.2679;;;;
2019/09/30 02:41:05;;;;;;;6.1;2.9;;;;;;;15.15;81.08887;930.3348;;;;
2019/09/30 02:43:44;;;;;;;5.2;3.4;;;;;;;15.27;80.79883;930.1264;;;;
2019/09/30 02:46:10;;;;;;;6.8;3.2;;;;;;;15.03;81.90723;930.3887;;;;
2019/09/30 02:48:43;;;;;;;5.5;3.5;;;;;;;15.18;81.62305;930.2541;;;;
2019/09/30 02:51:09;;;;;;;8.3;3.6;;;;;;;15.21;81.13574;930.3351;;;;
2019/09/30 02:53:38;;;;;;;6.3;3.5;;;;;;;15.32;80.95703;930.2601;;;;
2019/09/30 02:56:33;;;;;;;6.6;3.5;;;;;;;15.21;80.92578;930.4067;;;;
2019/09/30 02:59:05;;;;;;;4.8;3.4;;;;;;;14.8;82.66113;930.4375;;;;
2019/09/30 03:01:27;;;;;;;5.7;3.8;;;;;;;14.86;82.64844;930.1898;;;;
2019/09/30 03:03:53;;;;;;;7.9;3.6;;;;;;;14.79;82.8877;930.3344;;;;
2019/09/30 03:06:17;;;;;;;6.7;3.5;;;;;;;14.76;82.7793;930.3357;;;;
2019/09/30 03:08:46;;;;;;;6.3;3.1;;;;;;;14.93;82.06055;930.3103;;;;
2019/09/30 03:11:11;;;;;;;4.9;3.3;;;;;;;14.84;82.10254;930.353;;;;
2019/09/30 03:13:43;;;;;;;6.5;3.7;;;;;;;14.73;82.88965;930.3427;;;;
2019/09/30 03:16:11;;;;;;;7.3;3.3;;;;;;;14.89;82.13477;930.4193;;;;
2019/09/30 03:18:35;;;;;;;11.7;3.7;;;;;;;14.91;81.65527;930.3611;;;;
2019/09/30 03:21:02;;;;;;;6.7;3.5;;;;;;;14.68;82.67285;930.2459;;;;
2019/09/30 03:23:34;;;;;;;4.8;2.9;;;;;;;14.66;81.60742;930.5098;;;;
2019/09/30 03:26:01;;;;;;;7.7;3.4;;;;;;;14.83;80.64844;930.2809;;;;
2019/09/30 03:28:42;;;;;;;5.6;3.2;;;;;;;14.85;80.30566;930.327;;;;
2019/09/30 03:31:02;;;;;;;5.1;2.8;;;;;;;14.93;79.62695;930.3889;;;;
2019/09/30 03:33:31;;;;;;;4.7;2.6;;;;;;;15;79.41113;930.2511;;;;
2019/09/30 03:35:57;;;;;;;5;2.8;;;;;;;14.89;79.5625;930.0891;;;;
2019/09/30 03:38:42;;;;;;;4.6;2.8;;;;;;;14.88;79.82617;930.3304;;;;
2019/09/30 03:41:13;;;;;;;7.1;2.7;;;;;;;14.98;78.65625;930.3125;;;;
2019/09/30 03:43:42;;;;;;;4.6;2.3;;;;;;;15.16;76.37109;930.2167;;;;
2019/09/30 03:46:09;;;;;;;5.4;2.3;;;;;;;15.23;75.88574;930.2269;;;;
2019/09/30 03:48:52;;;;;;;4.1;1.8;;;;;;;15.26;71.88672;930.1091;;;;
2019/09/30 03:51:30;;;;;;;6.2;2;;;;;;;15.61;71.55176;930.1595;;;;
2019/09/30 03:53:54;;;;;;;5.6;2;;;;;;;15.82;72.9707;930.2781;;;;
2019/09/30 03:56:50;;;;;;;4.6;2.2;;;;;;;15.81;72.78418;930.258;;;;
2019/09/30 03:59:55;;;;;;;4.1;2.1;;;;;;;15.82;70.58984;930.2092;;;;
2019/09/30 04:03:08;;;;;;;3.2;1.8;;;;;;;15.84;70.12109;930.3812;;;;
2019/09/30 04:08:24;;;;;;;4.5;1.7;;;;;;;16.41;63.78906;930.3767;;;;
2019/09/30 04:11:34;;;;;;;5.3;1.8;;;;;;;16.51;63.83789;930.3695;;;;
2019/09/30 04:13:21;;;;;;;6.4;2;;;;;;;16.6;63.64258;930.2908;;;;
2019/09/30 04:16:14;;;;;;;4.8;1.4;;;;;;;16.67;60.46875;930.382;;;;
2019/09/30 04:25:08;;;;;;;2.8;1.5;;;;;;;16.82;62.58594;930.421;;;;
2019/09/30 04:30:06;;;;;;;3.3;1.3;;;;;;;17.32;59.01465;930.4719;;;;
2019/09/30 04:32:58;;;;;;;4.5;1.2;;;;;;;17.28;55.9375;930.481;;;;
2019/09/30 04:35:13;;;;;;;3.3;1.1;;;;;;;17.55;54.73047;930.4211;;;;
2019/09/30 04:37:38;;;;;;;3;1.2;;;;;;;17.65;56.45996;930.506;;;;
2019/09/30 04:40:17;;;;;;;2.4;1.3;;;;;;;17.8;57.61816;930.5372;;;;
2019/09/30 04:42:43;;;;;;;6.3;1.5;;;;;;;17.43;57.89355;930.5317;;;;
2019/09/30 04:45:18;;;;;;;4.3;1.4;;;;;;;17.26;59.22852;930.6707;;;;
2019/09/30 04:47:33;;;;;;;2.6;1.2;;;;;;;17.14;54.7373;930.6052;;;;
2019/09/30 04:50:42;;;;;;;2.3;1;;;;;;;17.54;53.78906;930.572;;;;
2019/09/30 05:00:13;;;;;;;6.1;1.3;;;;;;;17.96;53.83984;930.5858;;;;
2019/09/30 05:02:56;;;;;;;3.6;1.1;;;;;;;18.13;53.81445;930.8344;;;;
2019/09/30 05:05:48;;;;;;;3.6;1;;;;;;;17.9;53.47363;930.7784;;;;
2019/09/30 05:08:30;;;;;;;2.7;1;;;;;;;18.34;51.70215;930.7288;;;;
2019/09/30 05:11:01;;;;;;;3.8;1;;;;;;;18.57;50.2168;930.8483;;;;
2019/09/30 05:13:35;;;;;;;2.7;1;;;;;;;18.7;48.6377;930.7623;;;;
2019/09/30 05:16:30;;;;;;;2.9;1.1;;;;;;;18.88;50.00879;930.7967;;;;
2019/09/30 05:18:50;;;;;;;4.7;1.2;;;;;;;18.83;50.17773;930.7967;;;;
2019/09/30 05:21:16;;;;;;;2.4;1.1;;;;;;;18.94;51.36523;930.7922;;;;
2019/09/30 05:28:11;;;;;;;4.6;1.2;;;;;;;18.87;52.62402;930.915;;;;
2019/09/30 05:34:31;;;;;;;4.4;1.3;;;;;;;18.27;58.00391;931.0578;;;;
2019/09/30 05:37:03;;;;;;;3.3;1.3;;;;;;;18.13;58.05566;931.1785;;;;
2019/09/30 05:39:26;;;;;;;5.5;1.2;;;;;;;18.1;57.92383;931.1657;;;;
2019/09/30 05:42:06;;;;;;;3;0.9;;;;;;;18.15;53.0498;931.2288;;;;
2019/09/30 05:44:36;;;;;;;3.6;0.9;;;;;;;18.3;52.87109;931.1406;;;;
2019/09/30 05:47:04;;;;;;;2.8;1.1;;;;;;;18.59;51.84766;931.0854;;;;
2019/09/30 05:49:36;;;;;;;7.5;1.4;;;;;;;18.76;52.8916;931.212;;;;
2019/09/30 05:51:57;;;;;;;3.7;1.1;;;;;;;18.63;55.41211;931.3814;;;;
2019/09/30 05:54:40;;;;;;;4.7;1;;;;;;;18.49;55.47559;931.3976;;;;
2019/09/30 05:57:16;;;;;;;5.2;1.1;;;;;;;18.35;56.31836;931.4442;;;;
2019/09/30 05:59:46;;;;;;;6.9;1.1;;;;;;;18.51;57.03516;931.4727;;;;
2019/09/30 06:02:11;;;;;;;2.7;1.1;;;;;;;18.36;57.02832;931.5432;;;;
2019/09/30 06:04:40;;;;;;;5.5;1.3;;;;;;;18.26;58.62988;931.639;;;;
2019/09/30 06:07:17;;;;;;;7.4;1.3;;;;;;;18.09;56.95703;931.8439;;;;
2019/09/30 06:09:36;;;;;;;2.1;1.1;;;;;;;18.17;56.1543;931.8511;;;;
2019/09/30 06:12:03;;;;;;;3.4;1;;;;;;;18.52;55.74707;931.7431;;;;
2019/09/30 06:14:34;;;;;;;577.6;62.9;;;;;;;18.55;56.49512;931.8568;;;;
2019/09/30 06:17:20;;;;;;;8.4;1.7;;;;;;;18.67;56.02148;931.8521;;;;
2019/09/30 06:19:37;;;;;;;3.2;1.1;;;;;;;18.64;56.2959;931.9183;;;;
2019/09/30 06:22:04;;;;;;;4.2;1.3;;;;;;;18.74;55.79785;931.9908;;;;
2019/09/30 06:24:41;;;;;;;4.3;1.3;;;;;;;18.63;54.77246;932.0669;;;;
2019/09/30 06:27:09;;;;;;;5.6;1.3;;;;;;;19;56.40137;931.9955;;;;
2019/09/30 06:29:34;;;;;;;6.9;1.3;;;;;;;18.88;54.9541;931.9932;;;;
2019/09/30 06:32:02;;;;;;;5;1.2;;;;;;;18.91;53.63184;932.2092;;;;
2019/09/30 06:34:27;;;;;;;3;1.3;;;;;;;19.17;55.45605;932.3148;;;;
2019/09/30 06:36:54;;;;;;;4.2;1.3;;;;;;;19.4;55.56641;932.4236;;;;
2019/09/30 06:39:22;;;;;;;3.2;1;;;;;;;19.28;54.49219;932.3095;;;;
2019/09/30 06:41:52;;;;;;;6.5;1.2;;;;;;;19.32;54.83398;932.3293;;;;
2019/09/30 06:44:18;;;;;;;2.5;1.2;;;;;;;19.22;54.34473;932.3464;;;;
2019/09/30 06:46:48;;;;;;;4;1.3;;;;;;;19.57;54.3877;932.4758;;;;
2019/09/30 06:49:16;;;;;;;5.2;1.4;;;;;;;19.63;55.31543;932.4561;;;;
2019/09/30 06:51:48;;;;;;;6.3;1.3;;;;;;;19.64;56.89063;932.5214;;;;
2019/09/30 06:54:19;;;;;;;3.7;1.2;;;;;;;19.81;55.11621;932.537;;;;
2019/09/30 06:56:51;;;;;;;5.6;1.4;;;;;;;19.94;54.36328;932.5465;;;;
2019/09/30 06:59:19;;;;;;;3.3;1;;;;;;;19.99;51.66211;932.5237;;;;
2019/09/30 07:01:56;;;;;;;3.8;1;;;;;;;19.95;52.41504;932.6514;;;;
2019/09/30 07:04:27;;;;;;;3.9;1.3;;;;;;;19.75;54.80664;932.6959;;;;
2019/09/30 07:07:20;;;;;;;2.7;1;;;;;;;19.89;56.42285;932.7889;;;;
2019/09/30 07:09:48;;;;;;;2.4;1;;;;;;;20.1;55.67871;932.7148;;;;
2019/09/30 07:12:19;;;;;;;4;1;;;;;;;20.53;54.84473;932.8414;;;;
2019/09/30 07:14:46;;;;;;;4.4;1.1;;;;;;;20.43;52.90527;932.8734;;;;
2019/09/30 07:17:24;;;;;;;2;0.9;;;;;;;20.9;52.92578;932.8592;;;;
2019/09/30 07:20:15;;;;;;;3;1.1;;;;;;;21.09;47.22949;932.9194;;;;
2019/09/30 07:22:18;;;;;;;3.6;0.7;;;;;;;21.54;47.86328;932.8892;;;;
2019/09/30 07:24:43;;;;;;;2.9;0.8;;;;;;;21.95;46.98047;933.0385;;;;
2019/09/30 07:27:12;;;;;;;4.1;0.9;;;;;;;22.04;49.07813;933.0228;;;;
2019/09/30 07:29:40;;;;;;;2.4;0.8;;;;;;;22.26;48.2334;933.0976;;;;
2019/09/30 07:32:12;;;;;;;2.2;0.8;;;;;;;22.6;44.85547;933.1216;;;;
2019/09/30 07:34:45;;;;;;;3.3;1;;;;;;;22.93;46.00488;933.1983;;;;
2019/09/30 07:37:34;;;;;;;2.2;0.8;;;;;;;22.65;46.8916;933.3469;;;;
2019/09/30 07:40:01;;;;;;;5.2;1.1;;;;;;;22.48;45.20703;933.2957;;;;
2019/09/30 07:42:20;;;;;;;1.5;0.6;;;;;;;23.34;41.96777;933.2307;;;;
2019/09/30 07:44:46;;;;;;;2.1;0.9;;;;;;;24.83;39.82031;933.261;;;;
2019/09/30 07:47:15;;;;;;;4.8;0.9;;;;;;;24.64;38.44727;933.2717;;;;
2019/09/30 07:49:51;;;;;;;2.8;0.8;;;;;;;24.41;40.33594;933.3459;;;;
2019/09/30 07:52:19;;;;;;;2.7;0.8;;;;;;;24.41;41.83301;933.5748;;;;
2019/09/30 07:54:46;;;;;;;2.3;0.8;;;;;;;23.91;41.67969;933.5659;;;;
2019/09/30 07:57:19;;;;;;;2.2;0.7;;;;;;;24.13;42.90234;933.5761;;;;
2019/09/30 07:59:49;;;;;;;2.8;0.6;;;;;;;24.29;37.16797;933.4303;;;;
2019/09/30 08:02:14;;;;;;;2.6;0.7;;;;;;;25.22;33.13672;933.5978;;;;
2019/09/30 08:04:44;;;;;;;2.2;0.5;;;;;;;24.57;34.91699;933.7497;;;;
2019/09/30 08:07:09;;;;;;;2.5;0.5;;;;;;;23.28;36.25;933.6306;;;;
2019/09/30 08:09:34;;;;;;;2.2;0.8;;;;;;;23.04;37.09961;933.7204;;;;
2019/09/30 08:12:04;;;;;;;4.6;0.8;;;;;;;23.24;37.59766;933.8109;;;;
2019/09/30 08:14:29;;;;;;;1;0.5;;;;;;;23.77;37.35938;933.7189;;;;
2019/09/30 08:16:59;;;;;;;1.3;0.6;;;;;;;23.84;38.0957;933.8889;;;;
2019/09/30 08:19:34;;;;;;;2.7;0.6;;;;;;;23.27;37.90527;933.8452;;;;
2019/09/30 08:21:54;;;;;;;1.5;0.4;;;;;;;23.53;37.82227;933.8948;;;;
2019/09/30 08:24:22;;;;;;;1.3;0.7;;;;;;;22.86;37.31934;933.798;;;;
2019/09/30 08:26:52;;;;;;;1.3;0.6;;;;;;;22.73;38.79883;933.8604;;;;
2019/09/30 08:29:27;;;;;;;4.1;0.6;;;;;;;23.21;37.93652;933.8661;;;;
2019/09/30 08:31:55;;;;;;;2.1;0.6;;;;;;;23.21;37.125;933.9375;;;;
2019/09/30 08:34:22;;;;;;;1;0.5;;;;;;;22.88;37.77832;933.9094;;;;
2019/09/30 08:36:52;;;;;;;0.6;0.5;;;;;;;22.57;37.24902;933.9074;;;;
2019/09/30 08:39:17;;;;;;;1.2;0.5;;;;;;;22.45;38.12988;933.9816;;;;
2019/09/30 08:41:45;;;;;;;2.7;0.5;;;;;;;22.32;37.61328;933.91;;;;
2019/09/30 08:44:14;;;;;;;1.9;0.6;;;;;;;22.43;38.19727;933.9032;;;;
2019/09/30 08:46:47;;;;;;;0.5;0.4;;;;;;;23.16;38.625;934.0895;;;;
2019/09/30 08:49:16;;;;;;;3.4;0.6;;;;;;;23.73;34.98047;934.0759;;;;
2019/09/30 08:51:38;;;;;;;2;0.4;;;;;;;23.54;36.22363;934.2073;;;;
2019/09/30 08:54:05;;;;;;;1.2;0.4;;;;;;;22.93;36.63184;934.2241;;;;
2019/09/30 08:56:32;;;;;;;2.1;0.5;;;;;;;22.65;39.32031;934.1033;;;;
2019/09/30 08:58:58;;;;;;;1.4;0.5;;;;;;;22.09;38.94336;934.3256;;;;
2019/09/30 09:01:23;;;;;;;2.8;0.7;;;;;;;22.46;38.99902;934.3561;;;;
2019/09/30 09:04:14;;;;;;;2.2;0.4;;;;;;;22.31;39.29004;934.3136;;;;
2019/09/30 09:06:24;;;;;;;3.5;0.5;;;;;;;22.09;39.96289;934.2916;;;;
2019/09/30 09:08:49;;;;;;;1.3;0.6;;;;;;;22.24;40.64355;934.384;;;;
2019/09/30 09:12:04;;;;;;;2.3;0.4;;;;;;;22.86;40.70117;934.3617;;;;
2019/09/30 09:14:59;;;;;;;1.9;0.6;;;;;;;23.09;40.98145;934.5744;;;;
2019/09/30 09:17:35;;;;;;;3;0.5;;;;;;;23.66;37.33984;934.598;;;;
2019/09/30 09:21:10;;;;;;;1.8;0.3;;;;;;;23.61;37.61816;934.4967;;;;
2019/09/30 09:24:35;;;;;;;0.8;0.4;;;;;;;23.03;38.0498;934.4504;;;;
2019/09/30 09:27:54;;;;;;;0.8;0.4;;;;;;;23.26;38.6582;934.6205;;;;
2019/09/30 09:30:33;;;;;;;3.3;0.7;;;;;;;22.9;38.16797;934.3762;;;;
2019/09/30 09:33:07;;;;;;;0.7;0.4;;;;;;;22.43;39.80566;934.5586;;;;
2019/09/30 09:35:33;;;;;;;1.4;0.4;;;;;;;22.55;42.84375;934.6747;;;;
2019/09/30 09:38:02;;;;;;;1.9;0.5;;;;;;;22.96;41.09863;934.726;;;;
2019/09/30 09:40:27;;;;;;;1.2;0.5;;;;;;;22.75;39.48145;934.9042;;;;
2019/09/30 09:42:56;;;;;;;1.7;0.4;;;;;;;22.78;40.11816;934.8552;;;;
2019/09/30 09:45:20;;;;;;;2.6;0.5;;;;;;;22.82;39.62891;934.9622;;;;
2019/09/30 09:47:45;;;;;;;6.2;2.6;;;;;;;23.05;39.08496;934.8825;;;;
2019/09/30 09:50:26;;;;;;;2.5;0.9;;;;;;;22.91;38.38086;934.9425;;;;
2019/09/30 09:53:46;;;;;;;0.7;0.4;;;;;;;22.88;40.06934;935.0631;;;;
2019/09/30 09:57:10;;;;;;;1.3;0.5;;;;;;;22.77;39.73047;935.1077;;;;
2019/09/30 10:00:26;;;;;;;3.1;0.7;;;;;;;22.6;38.07129;934.9549;;;;
2019/09/30 10:03:00;;;;;;;2.7;0.6;;;;;;;22.76;38.40234;934.9587;;;;
2019/09/30 10:05:30;;;;;;;1.9;0.4;;;;;;;22.99;39.80762;934.991;;;;
2019/09/30 10:08:57;;;;;;;0.8;0.4;;;;;;;23.12;37.74023;934.9166;;;;
2019/09/30 10:11:30;;;;;;;0.8;0.5;;;;;;;23.47;39.28711;935.0769;;;;
2019/09/30 10:15:08;;;;;;;0.6;0.3;;;;;;;23.52;37.45703;934.9941;;;;
2019/09/30 10:17:41;;;;;;;0.4;0.3;;;;;;;23.53;38.56348;935.1252;;;;
2019/09/30 10:20:15;;;;;;;2.2;0.5;;;;;;;23.57;37.06152;934.9524;;;;
2019/09/30 10:23:11;;;;;;;1.2;0.5;;;;;;;23.67;36.95215;934.9763;;;;
2019/09/30 10:25:30;;;;;;;2.3;0.5;;;;;;;23.62;38.14844;935.0076;;;;
2019/09/30 10:28:03;;;;;;;1.7;0.5;;;;;;;23.82;38.58887;934.9311;;;;
2019/09/30 10:31:28;;;;;;;1.7;0.4;;;;;;;24.12;38.67383;935.0427;;;;
2019/09/30 10:34:01;;;;;;;0.7;0.4;;;;;;;24.16;36.43848;935.0452;;;;
2019/09/30 10:36:32;;;;;;;2.2;0.4;;;;;;;24.53;39.23926;934.9781;;;;
2019/09/30 10:39:06;;;;;;;1.5;0.4;;;;;;;24.68;35.44434;935.0497;;;;
2019/09/30 10:41:40;;;;;;;1.2;0.3;;;;;;;24.4;33.77148;934.9648;;;;
2019/09/30 10:44:13;;;;;;;1;0.4;;;;;;;24.31;34.58984;935.0563;;;;
2019/09/30 10:46:40;;;;;;;1.4;0.4;;;;;;;23.94;36.08008;934.8761;;;;
2019/09/30 10:49:07;;;;;;;0.5;0.4;;;;;;;24.26;35.0918;934.9563;;;;
2019/09/30 10:51:47;;;;;;;1.1;0.3;;;;;;;24.38;36.5625;935.1107;;;;
2019/09/30 10:54:14;;;;;;;1.1;0.4;;;;;;;24.58;35.64844;935.0991;;;;
2019/09/30 10:56:45;;;;;;;0.6;0.4;;;;;;;24.58;35.77832;935.139;;;;
2019/09/30 10:59:19;;;;;;;0.4;0.3;;;;;;;24.55;34.70313;935.1071;;;;
2019/09/30 11:01:44;;;;;;;0.9;0.3;;;;;;;24.4;35.13867;934.9636;;;;
2019/09/30 11:04:12;;;;;;;1.4;0.6;;;;;;;24.56;34.12598;934.93;;;;
2019/09/30 11:06:45;;;;;;;0.8;0.4;;;;;;;24.71;32.875;934.8943;;;;
2019/09/30 11:09:18;;;;;;;0.7;0.5;;;;;;;24.2;35.7002;935.113;;;;
2019/09/30 11:11:45;;;;;;;0.8;0.3;;;;;;;25.11;37.47168;935.0208;;;;
2019/09/30 11:14:18;;;;;;;0.9;0.4;;;;;;;25.6;33.14258;935.0961;;;;
2019/09/30 11:16:49;;;;;;;0.9;0.4;;;;;;;25.62;31.52441;935.1481;;;;
2019/09/30 11:19:10;;;;;;;1.9;0.3;;;;;;;25.74;34.60547;934.9888;;;;
2019/09/30 11:21:45;;;;;;;1.9;0.4;;;;;;;25.7;36.83594;934.9717;;;;
2019/09/30 11:24:16;;;;;;;0.6;0.3;;;;;;;25.48;39.20508;935.132;;;;
2019/09/30 11:26:37;;;;;;;0.5;0.2;;;;;;;25.24;40.64746;935.1387;;;;
2019/09/30 11:29:15;;;;;;;1.9;0.4;;;;;;;25.42;39.36523;934.8088;;;;
2019/09/30 11:31:48;;;;;;;1.2;0.4;;;;;;;24.97;39.59668;934.8184;;;;
2019/09/30 11:34:17;;;;;;;1.9;0.5;;;;;;;24.34;40.24707;934.9731;;;;
2019/09/30 11:36:47;;;;;;;1.4;0.5;;;;;;;24.53;40.83008;935.0814;;;;
2019/09/30 11:39:16;;;;;;;1.1;0.4;;;;;;;25.3;37.60645;935.0494;;;;
2019/09/30 11:41:45;;;;;;;0.8;0.4;;;;;;;25.08;39.7002;934.8617;;;;
2019/09/30 11:44:16;;;;;;;1.9;0.4;;;;;;;24.66;40.79492;934.8287;;;;
2019/09/30 11:49:32;;;;;;;1.3;0.5;;;;;;;25.44;38.25586;935.1365;;;;
2019/09/30 11:51:51;;;;;;;0.6;0.4;;;;;;;25.05;37.33691;935.2195;;;;
2019/09/30 11:54:30;;;;;;;0.8;0.3;;;;;;;26.38;34.02832;935.1161;;;;
2019/09/30 11:57:05;;;;;;;0.6;0.4;;;;;;;27.79;32.74512;934.9719;;;;
2019/09/30 11:59:48;;;;;;;2.1;0.6;;;;;;;29.44;29.92285;935.2031;;;;
2019/09/30 12:02:13;;;;;;;2.2;0.5;;;;;;;30.16;29.02734;935.0161;;;;
2019/09/30 12:04:36;;;;;;;1.6;0.4;;;;;;;31.7;26.80273;934.7593;;;;
2019/09/30 12:07:06;;;;;;;2.1;0.5;;;;;;;31.62;26.33105;934.7364;;;;
2019/09/30 12:09:34;;;;;;;1.1;0.5;;;;;;;30.67;27.07617;934.9156;;;;
2019/09/30 12:12:06;;;;;;;1.3;0.5;;;;;;;30.67;24.61426;934.875;;;;
2019/09/30 12:14:37;;;;;;;1.3;0.5;;;;;;;32.13;24.34668;934.827;;;;
2019/09/30 12:17:04;;;;;;;1.1;0.6;;;;;;;32.24;23.24902;934.878;;;;
2019/09/30 12:19:37;;;;;;;1.1;0.5;;;;;;;33.34;21.65918;934.8884;;;;
2019/09/30 12:22:17;;;;;;;1;0.5;;;;;;;33.07;23.54492;934.8244;;;;
2019/09/30 12:24:42;;;;;;;2.4;0.6;;;;;;;31.83;22.24609;934.8391;;;;
2019/09/30 12:27:07;;;;;;;0.8;0.4;;;;;;;31.93;23.89258;934.8748;;;;
2019/09/30 12:29:49;;;;;;;1.3;0.6;;;;;;;31.79;23.03516;934.8848;;;;
2019/09/30 12:32:22;;;;;;;1.2;0.5;;;;;;;31.57;23.04785;934.7855;;;;
2019/09/30 12:35:04;;;;;;;3;0.8;;;;;;;31.24;23.50977;934.71;;;;
2019/09/30 12:37:38;;;;;;;1.5;0.7;;;;;;;31.29;25.90527;934.8212;;;;
2019/09/30 12:40:16;;;;;;;2.3;0.5;;;;;;;31.3;25.11523;934.8564;;;;
2019/09/30 12:42:44;;;;;;;1.4;0.5;;;;;;;31.55;23.60938;934.9677;;;;
2019/09/30 12:45:18;;;;;;;2.4;0.7;;;;;;;33.21;21.46094;934.9277;;;;
2019/09/30 12:47:52;;;;;;;0.6;0.4;;;;;;;32.68;21.74805;934.9067;;;;
2019/09/30 12:50:13;;;;;;;1.4;0.5;;;;;;;31.81;22.47266;935.0567;;;;
2019/09/30 12:52:48;;;;;;;1.6;0.4;;;;;;;31.06;23.91895;935.0633;;;;
2019/09/30 12:55:18;;;;;;;2.4;0.5;;;;;;;30.53;24.45215;934.9871;;;;
2019/09/30 12:57:43;;;;;;;0.7;0.5;;;;;;;31.62;23.50586;935.0142;;;;
2019/09/30 13:00:13;;;;;;;1;0.5;;;;;;;31.5;22.61328;935.0139;;;;
2019/09/30 13:02:38;;;;;;;0.9;0.4;;;;;;;30.56;23.66504;935.0873;;;;
2019/09/30 13:05:06;;;;;;;0.9;0.5;;;;;;;30.03;25.11719;935.1107;;;;
2019/09/30 13:07:40;;;;;;;2.4;0.7;;;;;;;29.78;24.37598;935.1646;;;;
2019/09/30 13:10:10;;;;;;;6.1;0.6;;;;;;;31.44;23.24414;935.119;;;;
2019/09/30 13:12:38;;;;;;;0.6;0.5;;;;;;;31.38;22.63086;935.019;;;;
2019/09/30 13:15:12;;;;;;;1.4;0.3;;;;;;;32.47;23.04492;935.0464;;;;
2019/09/30 13:17:42;;;;;;;1.4;0.4;;;;;;;31.5;22.0625;934.921;;;;
2019/09/30 13:20:15;;;;;;;1.9;0.7;;;;;;;30.83;23.99023;935.0065;;;;
2019/09/30 13:23:00;;;;;;;1.1;0.5;;;;;;;30.29;24.75;935.111;;;;
2019/09/30 13:25:21;;;;;;;0.6;0.5;;;;;;;30.08;24.57129;935.0535;;;;
2019/09/30 13:27:49;;;;;;;1.2;0.5;;;;;;;31.31;22.43652;934.9293;;;;
2019/09/30 13:30:18;;;;;;;1.8;0.4;;;;;;;29.64;25.23828;935.0478;;;;
2019/09/30 13:32:47;;;;;;;2.3;0.5;;;;;;;30.39;24.49219;935.0126;;;;
2019/09/30 13:35:19;;;;;;;1.8;0.5;;;;;;;32.18;22.65918;934.9982;;;;
2019/09/30 13:37:45;;;;;;;1.9;0.6;;;;;;;30.49;24.85645;935.1356;;;;
2019/09/30 13:40:18;;;;;;;1;0.6;;;;;;;30.6;22.44824;934.9871;;;;
2019/09/30 13:42:50;;;;;;;1;0.6;;;;;;;30.76;23.55664;935.1602;;;;
2019/09/30 13:45:16;;;;;;;0.7;0.6;;;;;;;30.17;24.27734;935.1074;;;;
2019/09/30 13:47:45;;;;;;;14.1;0.9;;;;;;;31.5;22.36133;935.0467;;;;
2019/09/30 13:50:10;;;;;;;1;0.5;;;;;;;30.56;23.48535;935.0927;;;;
2019/09/30 13:52:39;;;;;;;1.1;0.5;;;;;;;30.97;23.26855;935.0306;;;;
2019/09/30 13:55:05;;;;;;;1.2;0.6;;;;;;;31.39;22.18848;935.0195;;;;
2019/09/30 13:57:36;;;;;;;0.6;0.4;;;;;;;31.51;21.63184;935.0405;;;;
2019/09/30 14:00:09;;;;;;;1;0.5;;;;;;;31.56;21.88574;935.1234;;;;
2019/09/30 14:02:38;;;;;;;2.1;0.6;;;;;;;29.56;24.59082;935.1553;;;;
2019/09/30 14:05:04;;;;;;;2.6;0.5;;;;;;;29.04;26.02637;935.1445;;;;
2019/09/30 14:07:40;;;;;;;1.5;0.5;;;;;;;29.19;24.17676;934.9899;;;;
2019/09/30 14:10:08;;;;;;;1.7;0.6;;;;;;;30.04;24.05566;935.2104;;;;
2019/09/30 14:12:32;;;;;;;1.7;0.5;;;;;;;30.93;23.68457;935.0927;;;;
2019/09/30 14:15:00;;;;;;;1;0.6;;;;;;;30.63;23.52539;935.0499;;;;
2019/09/30 14:17:31;;;;;;;1.2;0.5;;;;;;;31.47;24.44336;935.1209;;;;
2019/09/30 14:20:16;;;;;;;1;0.4;;;;;;;31.22;23.85547;935.1384;;;;
2019/09/30 14:22:44;;;;;;;0.9;0.4;;;;;;;30.31;24.57129;935.1701;;;;
2019/09/30 14:25:06;;;;;;;3.3;0.6;;;;;;;30.54;26.74609;935.1379;;;;
2019/09/30 14:27:40;;;;;;;2.2;0.6;;;;;;;30.7;26.75586;935.21;;;;
2019/09/30 14:30:05;;;;;;;2;0.6;;;;;;;30.97;26.65137;935.1948;;;;
2019/09/30 14:32:39;;;;;;;1.4;0.6;;;;;;;31.58;26.25684;935.1267;;;;
2019/09/30 14:35:07;;;;;;;3.9;0.7;;;;;;;30.46;29.1416;935.0673;;;;
2019/09/30 14:37:34;;;;;;;3.6;0.7;;;;;;;29.63;30.20996;935.1664;;;;
2019/09/30 14:40:05;;;;;;;4.7;0.9;;;;;;;28.14;31.14355;935.3053;;;;
2019/09/30 14:42:40;;;;;;;3.3;0.7;;;;;;;28.02;31.31348;935.1925;;;;
2019/09/30 14:45:10;;;;;;;3.8;0.9;;;;;;;27.97;31.30957;935.161;;;;
2019/09/30 14:47:35;;;;;;;1.4;0.6;;;;;;;27.26;31.79492;935.2502;;;;
2019/09/30 14:50:08;;;;;;;0.6;0.4;;;;;;;26.38;33.36523;935.2452;;;;
2019/09/30 14:52:42;;;;;;;0.9;0.4;;;;;;;26.07;34.13477;935.1484;;;;
2019/09/30 14:55:10;;;;;;;0.6;0.4;;;;;;;25.27;36.16309;935.2065;;;;
2019/09/30 14:57:37;;;;;;;0.5;0.3;;;;;;;24.5;37.92773;935.2068;;;;
2019/09/30 15:00:14;;;;;;;1;0.4;;;;;;;24.32;38.20703;935.0151;;;;
2019/09/30 15:02:42;;;;;;;5;0.7;;;;;;;23.35;39.21777;935.1078;;;;
2019/09/30 15:05:16;;;;;;;1.3;0.5;;;;;;;23.44;39.13184;935.2317;;;;
2019/09/30 15:08:22;;;;;;;2.8;0.6;;;;;;;23.61;39.98047;935.2148;;;;
2019/09/30 15:10:49;;;;;;;1.2;0.6;;;;;;;22.97;40.61719;935.302;;;;
2019/09/30 15:13:18;;;;;;;3.2;0.6;;;;;;;22.52;42.73438;935.3349;;;;
2019/09/30 15:15:53;;;;;;;1.1;0.5;;;;;;;22.67;42.2334;935.3298;;;;
2019/09/30 15:18:19;;;;;;;5.9;0.7;;;;;;;22.55;42.52734;935.1298;;;;
2019/09/30 15:20:52;;;;;;;3;0.6;;;;;;;22.51;42.85156;935.1874;;;;
2019/09/30 15:23:22;;;;;;;1.4;0.6;;;;;;;22.03;43.83691;935.2377;;;;
2019/09/30 15:26:04;;;;;;;1.1;0.6;;;;;;;22.03;44.64453;935.2825;;;;